createdAt,value
2023-05-15T00:02:02.316Z,13.80
2023-05-15T00:04:29.345Z,13.30
2023-05-15T00:06:56.321Z,13.50
2023-05-15T00:09:23.243Z,13.90
2023-05-15T00:11:51.303Z,13.60
2023-05-15T00:14:18.317Z,13.70
2023-05-15T00:16:45.315Z,13.60
2023-05-15T00:19:12.367Z,13.70
2023-05-15T00:21:39.424Z,13.60
2023-05-15T00:24:06.594Z,14.20
2023-05-15T00:26:33.618Z,13.60
2023-05-15T00:29:00.701Z,13.60
2023-05-15T00:31:27.696Z,13.70
2023-05-15T00:36:24.206Z,13.50
2023-05-15T00:38:51.290Z,13.40
2023-05-15T00:41:19.145Z,13.40
2023-05-15T00:43:46.817Z,13.60
2023-05-15T00:46:14.291Z,13.60
2023-05-15T00:48:44.396Z,14.20
2023-05-15T00:51:12.465Z,13.50
2023-05-15T00:53:40.546Z,13.40
2023-05-15T00:56:09.351Z,14.10
2023-05-15T00:58:38.047Z,13.30
2023-05-15T01:01:08.246Z,13.30
2023-05-15T01:03:36.744Z,13.30
2023-05-15T01:06:04.147Z,13.20
2023-05-15T01:08:47.083Z,13.30
2023-05-15T01:11:16.146Z,13.30
2023-05-15T01:13:43.923Z,13.30
2023-05-15T01:16:11.463Z,13.30
2023-05-15T01:18:38.668Z,13.20
2023-05-15T01:22:07.121Z,13.10
2023-05-15T01:25:19.478Z,13.20
2023-05-15T01:27:52.930Z,13.20
2023-05-15T01:30:29.298Z,12.40
2023-05-15T01:33:32.833Z,12.90
2023-05-15T01:36:14.960Z,13.20
2023-05-15T01:38:52.037Z,13.10
2023-05-15T01:41:32.685Z,13.20
2023-05-15T01:44:29.199Z,13.20
2023-05-15T01:46:59.899Z,13.00
2023-05-15T01:49:29.598Z,12.70
2023-05-15T01:52:10.249Z,13.00
2023-05-15T01:54:38.958Z,12.90
2023-05-15T01:57:09.164Z,13.10
2023-05-15T01:59:37.479Z,11.60
2023-05-15T02:02:08.128Z,13.00
2023-05-15T02:04:35.733Z,13.10
2023-05-15T02:07:04.480Z,13.00
2023-05-15T02:09:33.099Z,13.20
2023-05-15T02:12:03.487Z,13.10
2023-05-15T02:14:31.688Z,14.10
2023-05-15T02:19:27.473Z,12.90
2023-05-15T02:21:54.518Z,12.90
2023-05-15T02:24:21.581Z,13.40
2023-05-15T02:27:03.988Z,13.00
2023-05-15T02:30:23.650Z,11.90
2023-05-15T02:33:12.882Z,12.90
2023-05-15T02:36:03.491Z,13.20
2023-05-15T02:38:38.218Z,12.80
2023-05-15T02:41:07.433Z,13.00
2023-05-15T02:43:36.870Z,12.80
2023-05-15T02:46:07.251Z,13.90
2023-05-15T02:48:42.520Z,12.80
2023-05-15T02:51:10.789Z,12.80
2023-05-15T02:53:42.122Z,12.70
2023-05-15T02:56:10.017Z,12.80
2023-05-15T02:58:38.282Z,12.40
2023-05-15T03:06:01.068Z,13.20
2023-05-15T03:08:29.065Z,12.90
2023-05-15T03:10:56.155Z,12.60
2023-05-15T03:13:23.182Z,12.70
2023-05-15T03:15:50.358Z,12.30
2023-05-15T03:18:19.033Z,12.60
2023-05-15T03:20:49.023Z,12.70
2023-05-15T03:23:16.467Z,12.60
2023-05-15T03:25:43.571Z,13.60
2023-05-15T03:28:11.589Z,12.60
2023-05-15T03:33:06.669Z,12.60
2023-05-15T03:38:02.704Z,12.70
2023-05-15T03:42:58.355Z,12.50
2023-05-15T03:45:25.773Z,12.50
2023-05-15T03:47:53.403Z,12.50
2023-05-15T03:50:20.974Z,12.70
2023-05-15T03:52:48.178Z,12.50
2023-05-15T03:55:15.337Z,13.10
2023-05-15T04:00:11.255Z,12.50
2023-05-15T04:02:41.387Z,12.50
2023-05-15T04:05:09.575Z,12.50
2023-05-15T04:07:37.744Z,12.50
2023-05-15T04:10:05.562Z,12.50
2023-05-15T04:12:34.830Z,12.50
2023-05-15T04:15:22.471Z,12.60
2023-05-15T04:17:52.137Z,12.30
2023-05-15T04:20:24.377Z,12.60
2023-05-15T04:32:44.439Z,12.40
2023-05-15T04:35:13.558Z,12.30
2023-05-15T04:37:42.329Z,12.30
2023-05-15T04:40:10.452Z,13.00
2023-05-15T04:45:07.815Z,12.10
2023-05-15T04:47:35.619Z,12.30
2023-05-15T04:50:03.089Z,12.30
2023-05-15T04:52:30.201Z,12.40
2023-05-15T04:54:57.210Z,12.00
2023-05-15T04:57:25.634Z,12.30
2023-05-15T04:59:52.776Z,12.30
2023-05-15T05:02:23.875Z,13.40
2023-05-15T05:04:51.249Z,12.30
2023-05-15T05:07:18.724Z,12.50
2023-05-15T05:09:46.156Z,12.20
2023-05-15T05:12:13.181Z,12.20
2023-05-15T05:22:05.977Z,12.20
2023-05-15T05:24:33.789Z,12.70
2023-05-15T05:27:00.869Z,12.20
2023-05-15T05:29:27.920Z,11.80
2023-05-15T05:31:55.040Z,12.20
2023-05-15T05:34:22.932Z,12.10
2023-05-15T05:36:50.169Z,12.30
2023-05-15T05:39:17.557Z,12.40
2023-05-15T05:41:45.209Z,12.10
2023-05-15T05:46:39.657Z,12.40
2023-05-15T05:49:06.747Z,12.20
2023-05-15T05:51:39.176Z,12.20
2023-05-15T05:54:06.304Z,12.10
2023-05-15T05:56:33.504Z,12.10
2023-05-15T05:59:02.052Z,12.20
2023-05-15T06:01:29.618Z,12.00
2023-05-15T06:03:57.542Z,12.30
2023-05-15T06:13:52.806Z,12.10
2023-05-15T06:16:20.028Z,11.90
2023-05-15T06:21:14.711Z,12.10
2023-05-15T06:23:41.836Z,11.20
2023-05-15T06:26:08.901Z,12.30
2023-05-15T06:38:26.617Z,12.30
2023-05-15T06:40:53.770Z,12.30
2023-05-15T06:43:20.818Z,12.30
2023-05-15T06:45:47.817Z,12.30
2023-05-15T06:48:14.911Z,12.20
2023-05-15T06:50:41.925Z,12.30
2023-05-15T06:55:38.112Z,12.50
2023-05-15T07:00:32.768Z,12.00
2023-05-15T07:02:59.833Z,12.30
2023-05-15T07:05:27.270Z,12.30
2023-05-15T07:07:54.815Z,12.20
2023-05-15T07:10:21.853Z,12.40
2023-05-15T07:12:48.925Z,12.20
2023-05-15T07:15:17.664Z,13.80
2023-05-15T07:20:13.116Z,12.10
2023-05-15T07:22:51.895Z,12.60
2023-05-15T07:27:51.983Z,12.60
2023-05-15T07:30:19.488Z,12.20
2023-05-15T07:32:46.595Z,12.60
2023-05-15T07:35:13.713Z,12.60
2023-05-15T07:37:41.546Z,12.80
2023-05-15T07:40:09.310Z,12.90
2023-05-15T07:47:31.585Z,12.90
2023-05-15T07:49:58.904Z,13.00
2023-05-15T07:54:54.021Z,13.10
2023-05-15T07:57:21.056Z,13.30
2023-05-15T07:59:48.076Z,13.30
2023-05-15T08:02:15.447Z,13.20
2023-05-15T08:04:42.597Z,13.50
2023-05-15T08:07:09.723Z,13.50
2023-05-15T08:09:36.697Z,13.50
2023-05-15T08:12:21.153Z,14.40
2023-05-15T08:14:53.817Z,13.70
2023-05-15T08:17:21.999Z,13.10
2023-05-15T08:19:49.677Z,14.20
2023-05-15T08:22:17.147Z,13.70
2023-05-15T08:24:45.164Z,13.80
2023-05-15T08:27:12.251Z,13.90
2023-05-15T08:29:40.164Z,14.60
2023-05-15T08:32:09.242Z,14.40
2023-05-15T08:34:36.399Z,13.60
2023-05-15T08:37:04.733Z,14.10
2023-05-15T08:39:31.856Z,14.10
2023-05-15T08:42:19.632Z,14.40
2023-05-15T08:44:47.010Z,14.20
2023-05-15T08:47:19.601Z,14.40
2023-05-15T08:49:52.867Z,14.20
2023-05-15T08:52:20.208Z,14.40
2023-05-15T08:54:53.389Z,14.40
2023-05-15T08:57:21.089Z,14.40
2023-05-15T08:59:49.600Z,14.30
2023-05-15T09:02:17.257Z,14.20
2023-05-15T09:04:44.845Z,14.50
2023-05-15T09:07:14.508Z,14.50
2023-05-15T09:09:43.453Z,14.80
2023-05-15T09:12:17.470Z,14.60
2023-05-15T09:14:44.779Z,13.60
2023-05-15T09:17:12.407Z,14.40
2023-05-15T09:19:43.170Z,14.40
2023-05-15T09:22:23.540Z,14.50
2023-05-15T09:24:53.170Z,14.50
2023-05-15T09:27:20.868Z,14.70
2023-05-15T09:29:47.892Z,14.10
2023-05-15T09:32:15.994Z,13.80
2023-05-15T09:34:45.948Z,14.00
2023-05-15T09:37:33.222Z,14.10
2023-05-15T09:40:11.810Z,14.30
2023-05-15T09:42:39.017Z,14.00
2023-05-15T09:45:07.008Z,13.00
2023-05-15T09:47:34.486Z,14.70
2023-05-15T09:50:01.958Z,14.90
2023-05-15T09:52:30.206Z,14.70
2023-05-15T09:54:58.029Z,14.40
2023-05-15T09:57:25.241Z,14.70
2023-05-15T09:59:52.287Z,14.50
2023-05-15T10:02:34.733Z,14.30
2023-05-15T10:05:02.268Z,14.90
2023-05-15T10:07:35.583Z,15.10
2023-05-15T10:10:04.649Z,14.50
2023-05-15T10:12:32.602Z,13.20
2023-05-15T10:15:01.370Z,14.20
2023-05-15T10:17:29.490Z,14.10
2023-05-15T10:20:00.855Z,14.30
2023-05-15T10:22:30.960Z,14.50
2023-05-15T10:25:24.253Z,14.30
2023-05-15T10:27:52.777Z,14.70
2023-05-15T10:30:20.568Z,14.70
2023-05-15T10:32:49.528Z,15.30
2023-05-15T10:35:17.902Z,14.70
2023-05-15T10:37:48.387Z,15.20
2023-05-15T10:40:17.330Z,14.60
2023-05-15T10:42:46.580Z,15.00
2023-05-15T10:45:14.272Z,15.80
2023-05-15T10:47:43.683Z,15.40
2023-05-15T10:50:13.367Z,15.10
2023-05-15T10:52:40.904Z,15.20
2023-05-15T10:55:15.333Z,16.60
2023-05-15T10:57:43.059Z,16.30
2023-05-15T11:00:31.393Z,15.20
2023-05-15T11:02:59.323Z,15.60
2023-05-15T11:05:26.927Z,15.50
2023-05-15T11:08:15.824Z,15.40
2023-05-15T11:10:42.885Z,17.60
2023-05-15T11:13:09.953Z,16.00
2023-05-15T11:15:48.191Z,17.00
2023-05-15T11:18:15.747Z,17.70
2023-05-15T11:20:54.375Z,17.10
2023-05-15T11:23:22.923Z,15.90
2023-05-15T11:28:24.541Z,15.40
2023-05-15T11:31:00.541Z,15.50
2023-05-15T11:33:31.713Z,16.10
2023-05-15T11:36:00.738Z,15.20
2023-05-15T11:38:28.377Z,15.30
2023-05-15T11:41:03.472Z,15.40
2023-05-15T11:43:36.533Z,15.20
2023-05-15T11:46:03.563Z,15.10
2023-05-15T11:48:44.153Z,15.20
2023-05-15T11:51:24.902Z,15.50
2023-05-15T11:53:56.394Z,15.40
2023-05-15T11:56:28.231Z,14.70
2023-05-15T11:59:01.237Z,15.30
2023-05-15T12:01:29.940Z,15.30
2023-05-15T12:03:57.058Z,15.10
2023-05-15T12:06:24.584Z,15.10
2023-05-15T12:08:53.179Z,15.70
2023-05-15T12:11:24.696Z,15.40
2023-05-15T12:13:56.060Z,15.40
2023-05-15T12:16:27.483Z,15.70
2023-05-15T12:18:57.302Z,15.60
2023-05-15T12:21:27.200Z,15.60
2023-05-15T12:24:07.258Z,15.60
2023-05-15T12:26:36.115Z,15.60
2023-05-15T12:29:04.562Z,15.70
2023-05-15T12:31:34.348Z,15.90
2023-05-15T12:34:02.082Z,15.90
2023-05-15T12:36:32.125Z,16.40
2023-05-15T12:39:05.915Z,15.80
2023-05-15T12:41:33.153Z,15.60
2023-05-15T12:44:00.395Z,15.60
2023-05-15T12:46:30.697Z,15.50
2023-05-15T12:49:01.706Z,15.70
2023-05-15T12:51:29.879Z,15.90
2023-05-15T12:54:00.121Z,16.90
2023-05-15T12:56:29.996Z,17.90
2023-05-15T12:58:57.440Z,17.40
2023-05-15T13:01:24.558Z,16.50
2023-05-15T13:03:52.396Z,16.50
2023-05-15T13:06:19.954Z,15.80
2023-05-15T13:08:48.310Z,16.40
2023-05-15T13:11:16.778Z,16.00
2023-05-15T13:13:48.863Z,16.10
2023-05-15T13:16:37.004Z,16.20
2023-05-15T13:19:04.621Z,16.30
2023-05-15T13:21:31.819Z,16.70
2023-05-15T13:26:26.472Z,16.90
2023-05-15T13:28:53.451Z,17.10
2023-05-15T13:31:20.537Z,16.90
2023-05-15T13:33:48.250Z,17.10
2023-05-15T13:39:00.174Z,17.20
2023-05-15T13:43:54.896Z,18.70
2023-05-15T13:51:16.750Z,17.80
2023-05-15T13:53:43.840Z,17.90
2023-05-15T13:56:10.899Z,17.40
2023-05-15T13:58:38.078Z,17.50
2023-05-15T14:01:07.396Z,17.20
2023-05-15T14:03:34.928Z,17.40
2023-05-15T14:06:02.047Z,17.10
2023-05-15T14:08:29.091Z,16.80
2023-05-15T14:10:56.422Z,17.20
2023-05-15T14:13:24.399Z,16.60
2023-05-15T14:15:51.508Z,18.70
2023-05-15T14:18:18.505Z,17.50
2023-05-15T14:20:45.674Z,17.70
2023-05-15T14:23:12.755Z,17.30
2023-05-15T14:25:41.064Z,17.90
2023-05-15T14:28:08.087Z,17.60
2023-05-15T14:33:02.737Z,17.60
2023-05-15T14:35:29.956Z,17.70
2023-05-15T14:37:57.344Z,17.70
2023-05-15T14:42:52.206Z,18.30
2023-05-15T14:45:19.272Z,18.90
2023-05-15T14:47:46.336Z,17.60
2023-05-15T14:52:40.746Z,17.70
2023-05-15T14:55:09.787Z,17.60
2023-05-15T14:57:38.144Z,18.20
2023-05-15T15:02:34.316Z,17.70
2023-05-15T15:05:04.757Z,17.90
2023-05-15T15:08:07.994Z,17.70
2023-05-15T15:10:37.353Z,18.50
2023-05-15T15:13:05.973Z,17.60
2023-05-15T15:15:34.698Z,17.60
2023-05-15T15:18:02.170Z,17.60
2023-05-15T15:20:29.457Z,17.90
2023-05-15T15:22:56.573Z,17.80
2023-05-15T15:27:51.288Z,17.10
2023-05-15T15:30:18.345Z,17.50
2023-05-15T15:32:48.409Z,18.20
2023-05-15T15:35:15.520Z,16.70
2023-05-15T15:37:42.611Z,17.80
2023-05-15T15:40:09.826Z,17.80
2023-05-15T15:42:37.009Z,17.80
2023-05-15T15:45:04.838Z,17.70
2023-05-15T15:47:32.302Z,17.80
2023-05-15T15:50:00.032Z,17.70
2023-05-15T15:52:28.208Z,18.10
2023-05-15T15:57:23.315Z,17.70
2023-05-15T15:59:50.560Z,17.60
2023-05-15T16:02:17.824Z,17.40
2023-05-15T16:04:44.963Z,17.70
2023-05-15T16:07:12.134Z,18.10
2023-05-15T16:09:39.250Z,17.40
2023-05-15T16:12:06.546Z,17.40
2023-05-15T16:14:33.628Z,17.60
2023-05-15T16:17:02.689Z,17.50
2023-05-15T16:19:30.457Z,17.40
2023-05-15T16:24:24.979Z,17.40
2023-05-15T16:26:52.157Z,16.50
2023-05-15T16:29:19.218Z,17.20
2023-05-15T16:31:47.061Z,17.20
2023-05-15T16:34:14.393Z,17.30
2023-05-15T16:36:41.403Z,17.30
2023-05-15T16:39:08.536Z,17.20
2023-05-15T16:41:35.588Z,17.40
2023-05-15T16:44:03.414Z,17.20
2023-05-15T16:46:30.501Z,16.70
2023-05-15T16:48:57.720Z,17.30
2023-05-15T16:51:24.704Z,18.20
2023-05-15T16:53:53.859Z,16.80
2023-05-15T16:56:21.302Z,16.70
2023-05-15T16:58:48.295Z,16.80
2023-05-15T17:01:15.417Z,16.60
2023-05-15T17:06:11.203Z,16.40
2023-05-15T17:08:38.231Z,16.90
2023-05-15T17:11:05.733Z,17.30
2023-05-15T17:13:32.749Z,16.80
2023-05-15T17:15:59.807Z,16.80
2023-05-15T17:18:27.259Z,16.80
2023-05-15T17:20:54.337Z,17.20
2023-05-15T17:23:23.072Z,16.50
2023-05-15T17:25:50.210Z,17.00
2023-05-15T17:28:17.279Z,16.60
2023-05-15T17:30:44.726Z,17.00
2023-05-15T17:33:11.787Z,16.90
2023-05-15T17:35:39.309Z,17.80
2023-05-15T17:38:06.455Z,16.90
2023-05-15T17:40:33.940Z,17.00
2023-05-15T17:43:00.956Z,16.80
2023-05-15T17:45:28.256Z,17.00
2023-05-15T17:48:02.488Z,17.10
2023-05-15T17:50:29.865Z,17.20
2023-05-15T17:52:57.055Z,16.70
2023-05-15T17:55:24.308Z,17.20
2023-05-15T17:57:52.316Z,17.20
2023-05-15T18:00:19.583Z,17.20
2023-05-15T18:02:46.841Z,17.10
2023-05-15T18:05:14.017Z,16.90
2023-05-15T18:07:42.377Z,17.10
2023-05-15T18:10:10.115Z,17.10
2023-05-15T18:12:37.521Z,17.30
2023-05-15T18:15:05.079Z,17.00
2023-05-15T18:17:32.491Z,17.20
2023-05-15T18:19:59.967Z,16.80
2023-05-15T18:22:27.160Z,17.00
2023-05-15T18:24:54.408Z,16.40
2023-05-15T18:27:21.415Z,16.40
2023-05-15T18:29:48.968Z,16.20
2023-05-15T18:32:16.150Z,15.80
2023-05-15T18:34:43.139Z,15.90
2023-05-15T18:37:10.142Z,16.20
2023-05-15T18:39:38.593Z,16.30
2023-05-15T18:42:07.109Z,15.90
2023-05-15T18:44:35.792Z,16.30
2023-05-15T18:47:03.375Z,16.20
2023-05-15T18:49:30.564Z,16.30
2023-05-15T18:51:57.978Z,16.30
2023-05-15T18:54:25.351Z,16.20
2023-05-15T18:56:52.382Z,15.70
2023-05-15T18:59:20.235Z,15.70
2023-05-15T19:01:49.110Z,15.80
2023-05-15T19:04:16.292Z,15.80
2023-05-15T19:06:44.317Z,15.10
2023-05-15T19:11:38.962Z,17.00
2023-05-15T19:14:06.002Z,15.80
2023-05-15T19:16:36.112Z,15.60
2023-05-15T19:19:03.338Z,16.20
2023-05-15T19:21:31.039Z,15.60
2023-05-15T19:26:25.518Z,16.30
2023-05-15T19:28:53.048Z,17.20
2023-05-15T19:31:30.685Z,14.90
2023-05-15T19:34:00.364Z,16.50
2023-05-15T19:36:27.867Z,16.50
2023-05-15T19:38:54.989Z,16.10
2023-05-15T19:41:22.738Z,16.00
2023-05-15T19:43:50.977Z,16.20
2023-05-15T19:46:19.189Z,16.30
2023-05-15T19:48:46.406Z,16.10
2023-05-15T19:51:13.459Z,15.80
2023-05-15T19:53:43.881Z,15.40
2023-05-15T19:56:10.981Z,16.10
2023-05-15T19:58:38.149Z,16.00
2023-05-15T20:01:05.483Z,15.90
2023-05-15T20:03:33.346Z,16.10
2023-05-15T20:06:02.571Z,16.20
2023-05-15T20:08:30.208Z,16.60
2023-05-15T20:13:24.941Z,16.30
2023-05-15T20:15:56.966Z,16.00
2023-05-15T20:18:30.855Z,16.10
2023-05-15T20:20:59.307Z,16.30
2023-05-15T20:23:26.514Z,15.10
2023-05-15T20:25:53.524Z,16.00
2023-05-15T20:28:24.815Z,16.60
2023-05-15T20:30:52.538Z,15.30
2023-05-15T20:33:19.591Z,16.10
2023-05-15T20:35:47.073Z,16.10
2023-05-15T20:38:14.520Z,16.20
2023-05-15T20:40:41.594Z,16.20
2023-05-15T20:45:36.925Z,16.00
2023-05-15T20:48:05.328Z,16.10
2023-05-15T20:50:32.385Z,15.90
2023-05-15T20:53:04.699Z,16.00
2023-05-15T20:55:31.910Z,16.90
2023-05-15T20:57:58.890Z,16.00
2023-05-15T21:00:26.269Z,15.90
2023-05-15T21:02:53.558Z,16.00
2023-05-15T21:05:20.778Z,15.80
2023-05-15T21:07:47.936Z,15.80
2023-05-15T21:10:14.956Z,15.80
2023-05-15T21:12:42.488Z,15.70
2023-05-15T21:15:11.314Z,17.10
2023-05-15T21:17:40.221Z,15.80
2023-05-15T21:20:08.346Z,16.40
2023-05-15T21:22:35.425Z,15.70
2023-05-15T21:25:02.517Z,15.60
2023-05-15T21:29:57.284Z,15.60
2023-05-15T21:32:24.880Z,15.60
2023-05-15T21:34:52.048Z,15.60
2023-05-15T21:37:19.252Z,15.50
2023-05-15T21:39:46.226Z,15.60
2023-05-15T21:42:13.182Z,15.60
2023-05-15T21:44:40.416Z,15.40
2023-05-15T21:47:07.401Z,15.60
2023-05-15T21:49:34.388Z,15.50
2023-05-15T21:52:01.331Z,15.50
2023-05-15T21:54:28.300Z,15.50
2023-05-15T21:56:55.325Z,15.30
2023-05-15T21:59:22.245Z,15.50
2023-05-15T22:01:49.205Z,15.20
2023-05-15T22:04:16.371Z,16.00
2023-05-15T22:06:43.588Z,15.40
2023-05-15T22:09:10.626Z,14.30
2023-05-15T22:11:37.779Z,15.90
2023-05-15T22:14:05.953Z,15.20
2023-05-15T22:16:33.184Z,15.30
2023-05-15T22:19:00.292Z,15.40
2023-05-15T22:21:27.466Z,15.30
2023-05-15T22:23:54.490Z,14.20
2023-05-15T22:28:55.992Z,15.10
2023-05-15T22:31:23.434Z,15.10
2023-05-15T22:33:52.712Z,15.20
2023-05-15T22:36:19.858Z,15.00
2023-05-15T22:38:46.846Z,15.20
2023-05-15T22:41:13.852Z,15.10
2023-05-15T22:43:40.913Z,15.00
2023-05-15T22:46:07.909Z,15.10
2023-05-15T22:48:35.465Z,15.00
2023-05-15T22:51:02.690Z,14.90
2023-05-15T22:53:29.730Z,14.90
2023-05-15T22:55:56.706Z,15.00
2023-05-15T22:58:23.676Z,13.80
2023-05-15T23:00:51.116Z,14.90
2023-05-15T23:03:18.231Z,14.90
2023-05-15T23:05:46.373Z,16.10
2023-05-15T23:08:13.321Z,14.70
2023-05-15T23:10:40.316Z,14.70
2023-05-15T23:13:07.266Z,15.00
2023-05-15T23:15:34.442Z,15.90
2023-05-15T23:18:01.572Z,14.80
2023-05-15T23:20:28.921Z,15.40
2023-05-15T23:22:56.260Z,14.70
2023-05-15T23:25:23.266Z,14.70
2023-05-15T23:27:50.280Z,14.60
2023-05-15T23:30:17.510Z,14.60
2023-05-15T23:32:44.818Z,14.60
2023-05-15T23:35:11.826Z,14.40
2023-05-15T23:37:38.825Z,14.50
2023-05-15T23:40:06.648Z,14.70
2023-05-15T23:42:33.682Z,14.50
2023-05-15T23:45:00.717Z,14.10
2023-05-15T23:47:28.014Z,14.50
2023-05-15T23:49:55.018Z,14.30
2023-05-15T23:52:22.535Z,13.50
2023-05-15T23:54:49.689Z,14.50
2023-05-15T23:57:17.122Z,13.00
2023-05-15T23:59:44.395Z,14.30
